Mukdahan, Thailand
Current Conditions -  °F | °C
As of 6:30 AM on Sunday 21 Dec 2014 (Local Time) from VTUU Reporting Station
Broken Clouds Broken Clouds  
Wind Chill: 63°   Ceiling: 30000
Heat Index: 63°   Visibility: 4mi
Dew Point: 57°   Wind: 6mph
Humidity: 82%   Direction: 20°NNE
Pressure: 29.94"   Gusts: NA
Location:  16.54°N, 104.72°E
Report Text: VTUU 202330Z 02005KT 6000 FEW025 BKN300 17/14 Q1014 A2996 NOSIG
Loading
Personal Weather Stations






























Interactive Weather Map New forecast layout! Learn more

10-Day Weather Forecast

Advertisements
Track Severe Weather on mobile